Time;durP1;ratioP1;P1;durP2;ratioP2;P2;SDS_P1;SDS_P2;PMS_P1;PMS_P2;Temp;Humidity;BMP_temperature;BMP_pressure;BME280_temperature;BME280_humidity;BME280_pressure;Samples;Min_cycle;Max_cycle;Signal;HPM_P1;HPM_P2
2022/07/12 00:01:53;;;;;;;2.80;2.60;;;20.80;68.40;;;;;;6284940;22;20199;-89
2022/07/12 00:04:20;;;;;;;3.20;2.97;;;20.80;68.50;;;;;;6284795;22;20582;-90
2022/07/12 00:06:46;;;;;;;2.80;2.60;;;20.80;68.50;;;;;;6259590;22;20172;-89
2022/07/12 00:09:13;;;;;;;2.90;2.70;;;20.80;69.20;;;;;;6285420;22;20137;-88
2022/07/12 00:11:41;;;;;;;3.30;3.00;;;20.80;68.50;;;;;;6259598;22;20148;-89
2022/07/12 00:14:07;;;;;;;2.88;2.67;;;20.80;68.40;;;;;;6259904;22;20144;-89
2022/07/12 00:16:35;;;;;;;2.95;2.75;;;20.80;68.40;;;;;;6285827;22;20139;-89
2022/07/12 00:19:02;;;;;;;3.00;2.80;;;20.80;68.30;;;;;;6284947;22;20270;-88
2022/07/12 00:21:30;;;;;;;2.90;2.70;;;20.80;68.40;;;;;;6260112;22;20513;-88
2022/07/12 00:23:56;;;;;;;2.85;2.65;;;20.80;68.20;;;;;;6285603;22;20136;-90
2022/07/12 00:26:27;;;;;;;2.80;2.60;;;20.90;68.30;;;;;;6259363;22;20176;-89
2022/07/12 00:28:53;;;;;;;2.97;2.78;;;20.70;68.20;;;;;;6285672;22;20162;-90
2022/07/12 00:31:20;;;;;;;2.92;2.72;;;20.80;68.30;;;;;;6259610;22;20148;-89
2022/07/12 00:33:46;;;;;;;2.83;2.63;;;20.80;68.20;;;;;;6259901;22;20169;-89
2022/07/12 00:36:11;;;;;;;3.13;2.92;;;20.80;68.10;;;;;;6259807;22;20168;-90
2022/07/12 00:38:37;;;;;;;3.45;3.17;;;20.80;68.30;;;;;;6258766;22;20514;-89
2022/07/12 00:41:04;;;;;;;2.90;2.70;;;20.80;68.30;;;;;;6259656;22;20156;-88
2022/07/12 00:43:31;;;;;;;2.90;2.70;;;20.80;68.20;;;;;;6259476;22;20147;-91
2022/07/12 00:45:57;;;;;;;2.80;2.60;;;20.80;68.20;;;;;;6284069;22;20565;-91
2022/07/12 00:48:22;;;;;;;2.92;2.72;;;20.80;68.30;;;;;;6284735;22;20187;-88
2022/07/12 00:50:48;;;;;;;2.90;2.70;;;20.80;68.30;;;;;;6259390;22;20142;-89
2022/07/12 00:53:18;;;;;;;2.83;2.63;;;20.80;68.30;;;;;;6259440;22;20144;-89
2022/07/12 00:55:44;;;;;;;3.00;2.80;;;20.80;68.30;;;;;;6285340;22;20155;-90
2022/07/12 00:58:09;;;;;;;2.95;2.75;;;20.80;68.30;;;;;;6259345;22;20571;-88
2022/07/12 01:00:35;;;;;;;3.08;2.83;;;20.80;68.30;;;;;;6259230;22;20148;-90
2022/07/12 01:03:02;;;;;;;3.10;2.90;;;20.80;68.20;;;;;;6259520;22;20151;-89
2022/07/12 01:05:28;;;;;;;2.95;2.75;;;20.80;68.30;;;;;;6258983;22;20619;-89
2022/07/12 01:07:55;;;;;;;2.80;2.60;;;20.70;68.30;;;;;;6284602;22;20128;-88
2022/07/12 01:10:20;;;;;;;3.20;2.90;;;20.80;68.40;;;;;;6259128;22;20139;-89
2022/07/12 01:12:47;;;;;;;2.90;2.70;;;20.80;68.30;;;;;;6259144;22;20148;-89
2022/07/12 01:15:15;;;;;;;3.30;3.00;;;20.80;68.30;;;;;;6259343;22;20602;-90
2022/07/12 01:17:40;;;;;;;3.30;3.00;;;20.80;69.10;;;;;;6259749;22;20136;-89
2022/07/12 01:20:13;;;;;;;2.95;2.75;;;20.80;68.30;;;;;;6285091;22;20132;-90
2022/07/12 01:22:40;;;;;;;3.17;2.97;;;20.80;68.50;;;;;;6284624;22;20440;-89
2022/07/12 01:25:07;;;;;;;3.10;2.90;;;20.80;68.30;;;;;;6259586;22;20587;-91
2022/07/12 01:27:34;;;;;;;3.20;3.00;;;20.80;69.20;;;;;;6259514;22;20140;-90
2022/07/12 01:30:03;;;;;;;3.08;2.88;;;20.70;69.20;;;;;;6258600;22;20667;-91
2022/07/12 01:32:30;;;;;;;3.00;2.70;;;20.70;68.30;;;;;;6284792;22;20505;-91
2022/07/12 01:35:01;;;;;;;2.80;2.60;;;20.70;68.30;;;;;;6259216;22;20156;-89
2022/07/12 01:37:33;;;;;;;3.30;3.00;;;20.70;68.30;;;;;;6258897;22;20578;-89
2022/07/12 01:39:59;;;;;;;3.20;3.00;;;20.70;68.40;;;;;;6259044;22;20174;-89
2022/07/12 01:42:28;;;;;;;3.15;2.85;;;20.70;68.40;;;;;;6259782;22;20466;-90
2022/07/12 01:44:54;;;;;;;2.90;2.70;;;20.70;68.40;;;;;;6258710;22;20148;-90
2022/07/12 01:47:24;;;;;;;3.10;2.90;;;20.70;68.50;;;;;;6284681;22;20229;-89
2022/07/12 01:49:49;;;;;;;3.08;2.88;;;20.70;68.40;;;;;;6259393;22;20551;-89
2022/07/12 01:52:15;;;;;;;3.45;3.15;;;20.70;68.50;;;;;;6259126;22;20136;-90
2022/07/12 01:54:43;;;;;;;3.38;3.08;;;20.70;68.50;;;;;;6259976;22;20274;-89
2022/07/12 01:57:10;;;;;;;3.45;3.15;;;20.70;68.50;;;;;;6258549;22;20245;-90
2022/07/12 01:59:36;;;;;;;3.50;3.20;;;20.70;68.50;;;;;;6283791;22;20215;-89
2022/07/12 02:02:03;;;;;;;3.10;2.90;;;20.70;68.50;;;;;;6258459;22;20148;-89
2022/07/12 02:04:31;;;;;;;2.97;2.78;;;20.70;68.40;;;;;;6258930;22;20175;-89
2022/07/12 02:06:57;;;;;;;3.25;3.03;;;20.70;68.50;;;;;;6286242;22;20168;-89
2022/07/12 02:09:27;;;;;;;3.15;2.95;;;20.70;68.50;;;;;;6286421;22;20135;-89
2022/07/12 02:11:54;;;;;;;3.15;2.95;;;20.70;68.60;;;;;;6260731;22;20200;-89
2022/07/12 02:14:20;;;;;;;3.03;2.80;;;20.70;68.60;;;;;;6261118;22;20560;-89
2022/07/12 02:16:46;;;;;;;3.10;2.90;;;20.70;68.70;;;;;;6286711;22;20530;-89
2022/07/12 02:19:13;;;;;;;2.95;2.75;;;20.70;68.60;;;;;;6261051;22;20155;-89
2022/07/12 02:21:41;;;;;;;3.40;3.10;;;20.70;68.60;;;;;;6286423;22;20136;-90
2022/07/12 02:24:09;;;;;;;3.25;2.95;;;20.60;68.50;;;;;;6261768;22;20160;-90
2022/07/12 02:26:36;;;;;;;3.00;2.80;;;20.70;68.50;;;;;;6261046;22;20167;-89
2022/07/12 02:29:03;;;;;;;2.88;2.67;;;20.70;68.50;;;;;;6261726;22;20144;-90
2022/07/12 02:31:29;;;;;;;2.97;2.78;;;20.70;68.50;;;;;;6261890;22;20140;-90
2022/07/12 02:33:54;;;;;;;3.10;2.90;;;20.70;68.50;;;;;;6262470;22;20156;-88
2022/07/12 02:36:22;;;;;;;3.10;2.90;;;20.70;68.50;;;;;;6262630;22;20148;-89
2022/07/12 02:38:50;;;;;;;3.28;2.97;;;20.70;68.50;;;;;;6264393;22;20196;-89
2022/07/12 02:41:16;;;;;;;3.00;2.80;;;20.70;68.40;;;;;;6264604;22;20156;-89
2022/07/12 02:43:45;;;;;;;3.35;3.03;;;20.70;68.40;;;;;;6263476;22;20190;-88
2022/07/12 02:46:12;;;;;;;2.90;2.70;;;20.70;68.40;;;;;;6264614;22;20183;-90
2022/07/12 02:48:40;;;;;;;3.30;3.00;;;20.70;68.50;;;;;;6264669;22;20567;-88
2022/07/12 02:51:06;;;;;;;3.03;2.83;;;20.70;68.50;;;;;;6265303;22;20223;-89
2022/07/12 02:53:35;;;;;;;2.90;2.70;;;20.70;68.50;;;;;;6267166;22;20144;-88
2022/07/12 02:56:01;;;;;;;3.30;3.00;;;20.70;68.50;;;;;;6266130;22;20143;-89
2022/07/12 02:58:27;;;;;;;3.10;2.90;;;20.60;68.40;;;;;;6267626;22;20159;-89
2022/07/12 03:00:52;;;;;;;3.35;3.08;;;20.70;68.50;;;;;;6293257;22;20132;-88
2022/07/12 03:03:18;;;;;;;3.10;2.90;;;20.70;68.50;;;;;;6267546;22;20155;-88
2022/07/12 03:05:44;;;;;;;3.00;2.80;;;20.60;68.40;;;;;;6268777;22;20187;-88
2022/07/12 03:08:10;;;;;;;3.15;2.85;;;20.70;68.50;;;;;;6268381;22;20144;-90
2022/07/12 03:10:36;;;;;;;3.20;3.00;;;20.70;68.40;;;;;;6268885;22;20564;-87
2022/07/12 03:13:05;;;;;;;3.10;2.90;;;20.70;68.40;;;;;;6268547;22;20140;-88
2022/07/12 03:15:31;;;;;;;2.90;2.70;;;20.70;68.40;;;;;;6268661;22;20155;-88
2022/07/12 03:17:58;;;;;;;3.20;2.90;;;20.70;68.30;;;;;;6269190;22;20151;-89
2022/07/12 03:20:30;;;;;;;3.13;2.92;;;20.70;68.30;;;;;;6269035;22;20674;-88
2022/07/12 03:22:56;;;;;;;3.20;3.00;;;20.70;68.10;;;;;;6270322;22;20144;-89
2022/07/12 03:25:25;;;;;;;3.10;2.90;;;20.70;68.10;;;;;;6293696;22;20144;-88
2022/07/12 03:27:59;;;;;;;3.00;2.80;;;20.70;68.10;;;;;;6268407;22;20206;-89
2022/07/12 03:30:25;;;;;;;3.10;2.80;;;20.70;68.00;;;;;;6297814;22;20125;-89
2022/07/12 03:32:56;;;;;;;3.10;2.80;;;20.70;68.00;;;;;;6269434;22;20151;-89
2022/07/12 03:35:25;;;;;;;3.00;2.80;;;20.80;68.10;;;;;;6270833;22;20151;-88
2022/07/12 03:37:51;;;;;;;2.83;2.63;;;20.80;67.90;;;;;;6270590;22;20187;-89
2022/07/12 03:40:18;;;;;;;3.13;2.92;;;20.80;67.90;;;;;;6269596;22;20170;-88
2022/07/12 03:42:50;;;;;;;3.00;2.80;;;20.80;67.80;;;;;;6269285;22;20179;-89
2022/07/12 03:45:22;;;;;;;3.30;3.00;;;20.80;67.60;;;;;;6204502;23;20154;-89
2022/07/12 03:47:48;;;;;;;3.00;2.78;;;20.90;67.70;;;;;;6177886;23;20169;-89
2022/07/12 03:50:15;;;;;;;2.90;2.70;;;20.90;67.50;;;;;;6143443;23;20158;-89
2022/07/12 03:52:47;;;;;;;2.80;2.60;;;20.80;67.30;;;;;;6118743;23;20160;-89
2022/07/12 03:55:17;;;;;;;2.92;2.72;;;20.90;67.40;;;;;;6109267;23;20655;-89
2022/07/12 03:57:43;;;;;;;2.88;2.67;;;21.00;67.30;;;;;;6037458;23;20156;-88
2022/07/12 04:00:15;;;;;;;2.85;2.65;;;20.90;67.20;;;;;;6056485;23;20153;-88
2022/07/12 04:02:44;;;;;;;2.80;2.60;;;21.00;67.30;;;;;;6057131;23;20635;-88
2022/07/12 04:05:15;;;;;;;2.80;2.60;;;20.90;67.20;;;;;;6080773;23;20160;-89
2022/07/12 04:07:43;;;;;;;3.28;2.97;;;20.90;67.00;;;;;;6081153;23;20141;-89
2022/07/12 04:10:25;;;;;;;2.90;2.70;;;21.00;67.10;;;;;;6056698;23;20157;-88
2022/07/12 04:12:58;;;;;;;2.75;2.55;;;21.00;67.00;;;;;;6022129;23;20151;-89
2022/07/12 04:15:26;;;;;;;2.70;2.50;;;21.00;67.10;;;;;;6004469;23;20177;-89
2022/07/12 04:18:00;;;;;;;2.80;2.60;;;21.00;66.90;;;;;;6005787;23;20151;-89
2022/07/12 04:20:27;;;;;;;2.70;2.50;;;21.00;66.90;;;;;;6042852;23;20188;-90
2022/07/12 04:22:56;;;;;;;3.00;2.80;;;21.00;66.80;;;;;;6060897;23;20162;-89
2022/07/12 04:25:26;;;;;;;2.80;2.60;;;21.00;66.80;;;;;;6089126;23;20159;-88
2022/07/12 04:27:55;;;;;;;2.70;2.50;;;21.00;66.70;;;;;;6132764;23;20156;-90
2022/07/12 04:30:23;;;;;;;2.80;2.60;;;21.00;67.40;;;;;;6108520;23;20156;-88
2022/07/12 04:32:58;;;;;;;2.50;2.33;;;21.10;66.50;;;;;;6133429;23;20153;-89
2022/07/12 04:35:36;;;;;;;2.70;2.50;;;21.10;66.40;;;;;;6108951;23;20152;-89
2022/07/12 04:38:07;;;;;;;2.72;2.53;;;21.10;66.50;;;;;;6084115;23;20196;-89
2022/07/12 04:40:38;;;;;;;2.67;2.47;;;21.10;66.40;;;;;;6108461;23;20150;-88
2022/07/12 04:43:13;;;;;;;2.95;2.70;;;21.10;66.30;;;;;;6086244;23;20208;-89
2022/07/12 04:45:38;;;;;;;2.80;2.60;;;21.10;66.40;;;;;;6133583;23;20708;-88
2022/07/12 04:48:08;;;;;;;2.83;2.63;;;21.10;66.40;;;;;;6133866;23;20153;-89
2022/07/12 04:50:41;;;;;;;2.58;2.38;;;21.10;66.40;;;;;;6132309;23;20153;-88
2022/07/12 04:53:19;;;;;;;2.70;2.50;;;21.10;66.40;;;;;;6161335;23;20210;-89
2022/07/12 04:55:51;;;;;;;2.83;2.63;;;21.10;66.30;;;;;;6143570;23;20155;-88
2022/07/12 04:58:24;;;;;;;2.70;2.50;;;21.10;66.30;;;;;;6166897;23;20152;-88
2022/07/12 05:00:53;;;;;;;2.83;2.63;;;21.10;66.20;;;;;;6151801;23;20157;-89
2022/07/12 05:03:30;;;;;;;;;;;;;;;;;;;;;
2022/07/12 05:06:04;;;;;;;2.58;2.38;;;21.10;65.90;;;;;;6150101;23;20193;-88
2022/07/12 05:08:36;;;;;;;2.80;2.60;;;21.10;65.90;;;;;;6138818;23;20163;-89
2022/07/12 05:11:07;;;;;;;2.92;2.72;;;21.20;66.10;;;;;;6061860;23;20153;-89
2022/07/12 05:13:40;;;;;;;2.75;2.55;;;21.10;66.00;;;;;;6075973;23;20285;-88
2022/07/12 05:16:13;;;;;;;2.63;2.42;;;21.10;66.00;;;;;;6074453;23;20165;-89
2022/07/12 05:18:42;;;;;;;2.53;2.33;;;21.10;65.90;;;;;;6075138;23;20212;-88
2022/07/12 05:21:17;;;;;;;2.58;2.38;;;21.10;65.80;;;;;;6083877;23;20156;-88
2022/07/12 05:23:53;;;;;;;2.72;2.53;;;21.10;65.70;;;;;;6079345;23;20160;-88
2022/07/12 05:26:53;;;;;;;2.60;2.40;;;21.10;65.40;;;;;;6080231;23;20180;-89
2022/07/12 05:29:26;;;;;;;2.58;2.30;;;21.20;65.30;;;;;;6059250;23;20153;-88
2022/07/12 05:32:11;;;;;;;2.17;2.08;;;21.30;65.10;;;;;;5994139;24;20155;-88
2022/07/12 05:34:52;;;;;;;2.63;2.42;;;21.30;65.20;;;;;;5961589;24;20151;-88
2022/07/12 05:37:25;;;;;;;2.72;2.53;;;21.40;65.00;;;;;;5929917;24;20177;-88
2022/07/12 05:40:02;;;;;;;2.50;2.30;;;21.30;64.90;;;;;;5884067;24;20173;-88
2022/07/12 05:42:32;;;;;;;2.20;2.10;;;21.30;64.80;;;;;;5927838;24;20264;-88
2022/07/12 05:45:18;;;;;;;2.63;2.42;;;21.40;64.60;;;;;;5874901;24;20252;-87
2022/07/12 05:47:46;;;;;;;2.10;2.00;;;21.40;64.50;;;;;;5977027;23;20159;-89
2022/07/12 05:50:12;;;;;;;2.10;2.00;;;21.50;64.40;;;;;;6078590;23;20193;-89
2022/07/12 05:55:30;;;;;;;2.20;2.10;;;21.50;63.80;;;;;;5974408;24;20213;-88
2022/07/12 05:58:03;;;;;;;2.25;2.15;;;21.50;63.60;;;;;;5971023;24;20166;-89
2022/07/12 06:00:39;;;;;;;1.88;1.77;;;21.50;63.50;;;;;;5993797;24;20158;-88
2022/07/12 06:03:10;;;;;;;2.50;2.30;;;21.50;63.40;;;;;;5949923;24;20155;-88
2022/07/12 06:05:36;;;;;;;2.13;2.03;;;21.60;63.40;;;;;;5932848;24;20200;-89
2022/07/12 06:08:16;;;;;;;2.08;1.98;;;21.60;63.40;;;;;;5957521;24;20161;-88
2022/07/12 06:10:46;;;;;;;2.15;2.00;;;21.60;63.10;;;;;;5901595;24;20159;-89
2022/07/12 06:13:12;;;;;;;2.00;1.90;;;21.70;63.00;;;;;;5934206;24;20216;-89
2022/07/12 06:15:40;;;;;;;2.20;2.10;;;21.70;62.80;;;;;;5887107;24;20177;-88
2022/07/12 06:18:13;;;;;;;2.42;2.22;;;21.70;62.80;;;;;;5910239;24;20174;-88
2022/07/12 06:20:44;;;;;;;2.40;2.30;;;21.60;62.70;;;;;;5910708;24;20165;-89
2022/07/12 06:23:16;;;;;;;2.40;2.20;;;21.60;62.90;;;;;;5933083;24;20157;-88
2022/07/12 06:25:52;;;;;;;2.20;2.10;;;21.50;62.90;;;;;;5927237;24;20190;-88
2022/07/12 06:28:21;;;;;;;2.22;2.13;;;21.60;62.70;;;;;;5989126;23;20216;-89
2022/07/12 06:30:51;;;;;;;2.47;2.28;;;21.60;62.60;;;;;;6015529;23;20154;-88
2022/07/12 06:33:25;;;;;;;2.10;2.00;;;21.60;62.30;;;;;;6049698;23;20156;-89
2022/07/12 06:35:55;;;;;;;2.08;1.98;;;21.70;62.20;;;;;;5970514;24;20182;-88
2022/07/12 06:38:23;;;;;;;2.17;2.08;;;21.80;62.00;;;;;;5981003;23;20679;-88
2022/07/12 06:40:51;;;;;;;2.10;2.00;;;21.70;62.10;;;;;;6052964;23;20157;-88
2022/07/12 06:43:21;;;;;;;2.40;2.20;;;21.80;62.00;;;;;;6053851;23;20161;-88
2022/07/12 06:45:50;;;;;;;1.92;1.83;;;21.80;61.90;;;;;;6032290;23;20260;-90
2022/07/12 06:48:18;;;;;;;2.30;2.10;;;21.70;61.80;;;;;;6055405;23;20181;-89
2022/07/12 06:50:45;;;;;;;2.22;2.03;;;21.80;61.90;;;;;;6054703;23;20153;-89
2022/07/12 06:53:12;;;;;;;2.00;1.90;;;21.90;61.40;;;;;;6083691;23;20181;-89
2022/07/12 06:55:39;;;;;;;2.08;1.98;;;21.90;61.10;;;;;;6108579;23;20169;-89
2022/07/12 06:58:09;;;;;;;2.25;2.08;;;21.90;61.30;;;;;;6063448;23;20301;-89
2022/07/12 07:00:42;;;;;;;2.40;2.20;;;21.90;61.40;;;;;;6113405;23;20160;-89
2022/07/12 07:03:17;;;;;;;1.88;1.77;;;21.80;61.20;;;;;;6138499;23;20203;-88
2022/07/12 07:05:43;;;;;;;2.30;2.10;;;21.90;61.10;;;;;;6141431;23;20214;-89
2022/07/12 07:08:20;;;;;;;2.00;1.90;;;21.90;61.00;;;;;;6143499;23;20148;-89
2022/07/12 07:10:46;;;;;;;2.20;2.10;;;21.90;61.00;;;;;;6085632;23;20152;-88
2022/07/12 07:13:12;;;;;;;1.92;1.83;;;22.00;60.90;;;;;;6059784;23;20187;-90
2022/07/12 07:15:50;;;;;;;2.20;2.10;;;21.90;60.90;;;;;;6061505;23;20168;-88
2022/07/12 07:18:20;;;;;;;2.00;1.90;;;21.90;60.90;;;;;;6085404;23;20153;-88
2022/07/12 07:20:51;;;;;;;2.00;1.90;;;21.90;60.70;;;;;;6031193;23;20167;-88
2022/07/12 07:23:23;;;;;;;1.90;1.80;;;22.00;60.70;;;;;;6058832;23;20157;-90
2022/07/12 07:25:49;;;;;;;1.92;1.83;;;22.00;60.50;;;;;;6077745;23;20196;-89
2022/07/12 07:28:20;;;;;;;2.10;1.98;;;22.10;60.20;;;;;;6030920;23;20154;-88
2022/07/12 07:30:56;;;;;;;1.92;1.83;;;22.00;60.10;;;;;;6087346;23;20574;-89
2022/07/12 07:33:31;;;;;;;2.38;2.17;;;22.00;60.20;;;;;;6091048;23;20159;-88
2022/07/12 07:36:04;;;;;;;1.80;1.70;;;22.10;60.30;;;;;;6111974;23;20236;-88
2022/07/12 07:38:29;;;;;;;1.73;1.63;;;22.00;60.30;;;;;;6148632;23;20285;-90
2022/07/12 07:40:57;;;;;;;2.00;1.90;;;21.90;60.30;;;;;;6139572;23;20162;-91
2022/07/12 07:43:25;;;;;;;1.80;1.70;;;22.00;60.20;;;;;;6165029;23;20152;-89
2022/07/12 07:45:53;;;;;;;1.95;1.85;;;22.00;60.00;;;;;;6138702;23;20206;-90
2022/07/12 07:48:20;;;;;;;2.10;2.00;;;22.00;59.90;;;;;;6139124;23;20151;-90
2022/07/12 07:50:46;;;;;;;1.90;1.80;;;22.00;59.80;;;;;;6174104;23;20179;-89
2022/07/12 07:53:12;;;;;;;1.98;1.88;;;22.10;59.70;;;;;;6203182;23;20146;-90
2022/07/12 07:55:39;;;;;;;1.77;1.67;;;22.00;59.80;;;;;;6203204;23;20149;-89
2022/07/12 07:58:05;;;;;;;1.92;1.83;;;22.00;59.70;;;;;;6202413;23;20279;-89
2022/07/12 08:00:33;;;;;;;2.30;2.10;;;22.00;59.70;;;;;;6203712;23;20133;-89
2022/07/12 08:03:04;;;;;;;2.03;1.92;;;22.00;60.50;;;;;;6204029;23;20146;-89
2022/07/12 08:05:32;;;;;;;1.75;1.65;;;22.10;59.50;;;;;;6203437;23;20150;-90
2022/07/12 08:07:58;;;;;;;2.08;1.98;;;22.10;59.40;;;;;;6203217;23;20569;-90
2022/07/12 08:10:24;;;;;;;2.20;2.00;;;22.10;59.40;;;;;;6256767;22;20155;-90
2022/07/12 08:12:52;;;;;;;2.00;1.90;;;22.10;59.30;;;;;;6260190;22;20129;-88
2022/07/12 08:15:43;;;;;;;1.98;1.88;;;22.10;59.20;;;;;;6258695;22;20133;-90
2022/07/12 08:18:11;;;;;;;1.75;1.65;;;22.20;59.30;;;;;;6178674;23;20150;-88
2022/07/12 08:20:38;;;;;;;2.00;1.90;;;22.10;59.10;;;;;;6172671;23;20150;-91
2022/07/12 08:23:04;;;;;;;2.20;2.00;;;22.20;59.10;;;;;;6172802;23;20232;-92
2022/07/12 08:25:31;;;;;;;2.40;1.98;;;22.10;59.10;;;;;;6172619;23;20584;-89
2022/07/12 08:27:58;;;;;;;2.10;2.00;;;22.10;59.10;;;;;;6171983;23;20157;-89
2022/07/12 08:30:23;;;;;;;2.05;1.95;;;22.20;59.10;;;;;;6172591;23;20233;-90
2022/07/12 08:32:49;;;;;;;2.10;2.00;;;22.20;59.00;;;;;;6196925;23;20146;-91
2022/07/12 08:35:15;;;;;;;1.75;1.65;;;22.20;59.10;;;;;;6172912;23;20153;-89
2022/07/12 08:37:41;;;;;;;2.00;1.90;;;22.10;58.90;;;;;;6172267;23;20196;-89
2022/07/12 08:40:11;;;;;;;1.85;1.75;;;22.10;58.90;;;;;;6197108;23;20138;-90
2022/07/12 08:42:40;;;;;;;1.95;1.85;;;22.10;58.90;;;;;;6171875;23;20231;-88
2022/07/12 08:45:06;;;;;;;2.15;2.00;;;22.20;58.80;;;;;;6171246;23;20162;-89
2022/07/12 08:47:32;;;;;;;1.95;1.85;;;22.20;58.70;;;;;;6194038;23;20174;-90
2022/07/12 08:50:19;;;;;;;1.77;1.67;;;22.20;58.70;;;;;;6267977;22;20152;-89
2022/07/12 08:52:50;;;;;;;2.00;1.90;;;22.20;58.60;;;;;;6257602;22;20152;-89
2022/07/12 08:55:21;;;;;;;2.10;1.92;;;22.30;58.50;;;;;;6281759;22;20125;-91
2022/07/12 08:57:48;;;;;;;1.90;1.80;;;22.20;58.40;;;;;;6256896;22;20167;-89
2022/07/12 09:00:16;;;;;;;1.85;1.75;;;22.20;58.40;;;;;;6231539;22;20148;-91
2022/07/12 09:02:58;;;;;;;2.00;1.90;;;22.20;58.30;;;;;;6232004;22;20187;-91
2022/07/12 09:05:28;;;;;;;2.00;1.90;;;22.20;58.30;;;;;;6231196;22;20152;-90
2022/07/12 09:08:09;;;;;;;1.70;1.60;;;22.20;58.30;;;;;;6256929;22;20587;-90
2022/07/12 09:10:51;;;;;;;1.90;1.80;;;22.20;59.10;;;;;;6230932;22;20149;-89
2022/07/12 09:13:18;;;;;;;1.80;1.70;;;22.20;58.30;;;;;;6234497;22;20160;-90
2022/07/12 09:15:47;;;;;;;1.88;1.77;;;22.20;58.20;;;;;;6231197;22;20635;-91
2022/07/12 09:18:22;;;;;;;1.83;1.73;;;22.30;58.00;;;;;;6231319;22;20164;-88
2022/07/12 09:20:51;;;;;;;1.90;1.80;;;22.30;57.90;;;;;;6256864;22;20598;-89
2022/07/12 09:23:17;;;;;;;2.20;2.10;;;22.30;57.90;;;;;;6229806;22;20164;-89
2022/07/12 09:25:44;;;;;;;1.73;1.63;;;22.30;57.80;;;;;;6255659;22;20183;-89
2022/07/12 09:28:15;;;;;;;1.80;1.70;;;22.30;58.00;;;;;;6230365;22;20583;-89
2022/07/12 09:30:47;;;;;;;2.05;1.67;;;22.30;57.90;;;;;;6254841;22;20152;-91
2022/07/12 09:36:07;;;;;;;2.17;2.08;;;22.30;57.80;;;;;;6280269;22;20164;-89
2022/07/12 09:38:37;;;;;;;2.40;2.20;;;22.30;57.70;;;;;;6242299;23;20204;-90
2022/07/12 09:41:07;;;;;;;1.88;1.77;;;22.20;57.70;;;;;;6200079;23;20216;-89
2022/07/12 09:43:33;;;;;;;1.90;1.80;;;22.20;57.70;;;;;;6224280;23;20203;-88
2022/07/12 09:46:00;;;;;;;1.90;1.80;;;22.20;57.70;;;;;;6223824;23;20496;-90
2022/07/12 09:48:28;;;;;;;1.90;1.80;;;22.30;57.50;;;;;;6248809;23;20122;-91
2022/07/12 09:50:58;;;;;;;1.92;1.83;;;22.30;57.30;;;;;;6198311;23;20232;-89
2022/07/12 09:53:31;;;;;;;1.63;1.52;;;22.30;57.30;;;;;;6223649;23;20523;-88
2022/07/12 09:55:57;;;;;;;1.55;1.45;;;22.40;57.10;;;;;;6199520;23;20528;-89
2022/07/12 09:58:26;;;;;;;1.92;1.83;;;22.40;57.10;;;;;;6197893;23;20593;-91
2022/07/12 10:00:54;;;;;;;1.83;1.73;;;22.40;57.10;;;;;;6198084;23;20149;-91
2022/07/12 10:03:21;;;;;;;1.75;1.65;;;22.40;57.00;;;;;;6199255;23;20188;-89
2022/07/12 10:05:47;;;;;;;1.80;1.70;;;22.40;57.00;;;;;;6198906;23;20601;-90
2022/07/12 10:08:13;;;;;;;1.42;1.33;;;22.40;56.90;;;;;;6223542;23;20133;-89
2022/07/12 10:10:39;;;;;;;2.00;1.90;;;22.30;56.90;;;;;;6198471;23;20523;-90
2022/07/12 10:13:08;;;;;;;1.90;1.80;;;22.30;56.90;;;;;;6249649;23;20130;-90
2022/07/12 10:15:36;;;;;;;1.90;1.80;;;22.30;56.80;;;;;;6223187;23;20133;-88
2022/07/12 10:18:02;;;;;;;2.08;1.98;;;22.40;56.90;;;;;;6198033;23;20141;-89
2022/07/12 10:20:28;;;;;;;1.88;1.77;;;22.30;56.90;;;;;;6198584;23;20283;-91
2022/07/12 10:23:30;;;;;;;1.67;1.58;;;22.30;56.80;;;;;;6197656;23;20145;-91
2022/07/12 10:25:58;;;;;;;1.70;1.60;;;22.40;56.70;;;;;;6223451;23;20177;-89
2022/07/12 10:29:03;;;;;;;2.00;1.90;;;22.40;56.60;;;;;;6224723;23;20186;-91
2022/07/12 10:31:34;;;;;;;2.10;1.90;;;22.30;56.90;;;;;;6223471;23;20146;-90
2022/07/12 10:34:08;;;;;;;1.75;1.65;;;22.30;57.00;;;;;;6223197;23;20224;-89
2022/07/12 10:37:10;;;;;;;1.90;1.80;;;22.40;56.90;;;;;;6224795;23;20137;-90
2022/07/12 10:39:37;;;;;;;1.85;1.75;;;22.30;56.60;;;;;;6276641;22;20203;-90
2022/07/12 10:42:14;;;;;;;2.10;1.90;;;22.40;56.40;;;;;;6254873;22;20156;-89
2022/07/12 10:44:47;;;;;;;1.77;1.67;;;22.40;56.20;;;;;;6279710;22;20138;-90
2022/07/12 10:47:15;;;;;;;1.60;1.50;;;22.50;56.20;;;;;;6253753;22;20550;-89
2022/07/12 10:49:49;;;;;;;1.90;1.80;;;22.50;56.10;;;;;;6257132;22;20155;-89
2022/07/12 10:52:16;;;;;;;1.70;1.60;;;22.40;56.10;;;;;;6250263;23;20476;-89
2022/07/12 10:55:20;;;;;;;1.60;1.50;;;22.50;56.10;;;;;;6223960;23;20153;-91
2022/07/12 10:57:50;;;;;;;1.90;1.80;;;22.40;56.10;;;;;;6255108;23;20153;-90
2022/07/12 11:00:16;;;;;;;1.92;1.83;;;22.40;56.10;;;;;;6224772;23;20231;-90
2022/07/12 11:02:42;;;;;;;1.70;1.60;;;22.40;56.30;;;;;;6222585;23;20157;-90
2022/07/12 11:05:08;;;;;;;1.95;1.75;;;22.40;56.20;;;;;;6223510;23;20264;-89
2022/07/12 11:07:38;;;;;;;1.80;1.70;;;22.50;56.00;;;;;;6223925;23;20205;-90
2022/07/12 11:10:06;;;;;;;1.70;1.60;;;22.40;55.90;;;;;;6224323;23;20149;-90
2022/07/12 11:12:33;;;;;;;1.70;1.60;;;22.50;55.80;;;;;;6223684;23;20585;-89
2022/07/12 11:15:01;;;;;;;1.65;1.55;;;22.40;55.80;;;;;;6223473;23;20184;-89
2022/07/12 11:17:28;;;;;;;1.80;1.70;;;22.40;55.80;;;;;;6248123;23;20158;-88
2022/07/12 11:20:14;;;;;;;1.80;1.70;;;22.50;55.60;;;;;;6223079;23;20156;-90
2022/07/12 11:22:41;;;;;;;1.73;1.63;;;22.50;55.70;;;;;;6232527;22;20520;-90
2022/07/12 11:25:09;;;;;;;1.92;1.83;;;22.40;55.60;;;;;;6256305;22;20148;-89
2022/07/12 11:27:35;;;;;;;1.60;1.50;;;22.50;55.50;;;;;;6254620;22;20176;-89
2022/07/12 11:30:02;;;;;;;1.77;1.67;;;22.50;55.30;;;;;;6254121;22;20529;-89
2022/07/12 11:32:43;;;;;;;2.05;1.90;;;22.40;55.30;;;;;;6256128;22;20149;-89
2022/07/12 11:35:18;;;;;;;1.70;1.60;;;22.50;55.30;;;;;;6279921;22;20441;-89
2022/07/12 11:37:49;;;;;;;2.30;1.60;;;22.50;55.20;;;;;;6257356;22;20148;-89
2022/07/12 11:40:14;;;;;;;1.85;1.75;;;22.50;55.20;;;;;;6259275;22;20235;-90
2022/07/12 11:42:53;;;;;;;1.70;1.60;;;22.50;55.20;;;;;;6259504;22;20147;-88
2022/07/12 11:45:18;;;;;;;1.80;1.70;;;22.50;55.10;;;;;;6259702;22;20177;-90
2022/07/12 11:47:46;;;;;;;1.83;1.73;;;22.50;55.00;;;;;;6286065;22;20622;-90
2022/07/12 11:50:17;;;;;;;1.75;1.65;;;22.50;54.90;;;;;;6285371;22;20124;-90
2022/07/12 11:52:42;;;;;;;1.60;1.50;;;22.50;54.80;;;;;;6259640;22;20148;-91
2022/07/12 11:55:08;;;;;;;1.73;1.63;;;22.60;54.70;;;;;;6259633;22;20155;-90
2022/07/12 11:57:35;;;;;;;1.30;1.20;;;22.60;55.40;;;;;;6284667;22;20133;-90
2022/07/12 12:00:16;;;;;;;1.65;1.55;;;22.60;54.70;;;;;;6259567;22;20156;-89
2022/07/12 12:02:42;;;;;;;1.60;1.50;;;22.60;54.70;;;;;;6259691;22;20171;-90
2022/07/12 12:05:10;;;;;;;1.60;1.50;;;22.60;54.80;;;;;;6260224;22;20162;-89
2022/07/12 12:07:35;;;;;;;1.98;1.83;;;22.50;54.70;;;;;;6259522;22;20187;-89
2022/07/12 12:10:06;;;;;;;2.85;1.52;;;22.50;54.70;;;;;;6285927;22;20459;-89
2022/07/12 12:12:37;;;;;;;1.58;1.48;;;22.60;54.60;;;;;;6260374;22;20148;-89
2022/07/12 12:15:06;;;;;;;1.70;1.60;;;22.60;54.40;;;;;;6260109;22;20579;-89
2022/07/12 12:17:33;;;;;;;1.80;1.70;;;22.70;54.30;;;;;;6285186;22;20148;-89
2022/07/12 12:20:09;;;;;;;1.60;1.50;;;22.70;54.40;;;;;;6261010;22;20155;-90
2022/07/12 12:22:34;;;;;;;1.67;1.58;;;22.60;54.10;;;;;;6260859;22;20213;-90
2022/07/12 12:25:00;;;;;;;1.60;1.50;;;22.60;54.30;;;;;;6259387;22;20555;-88
2022/07/12 12:27:32;;;;;;;1.52;1.42;;;22.50;54.20;;;;;;6259317;22;20183;-89
2022/07/12 12:30:33;;;;;;;2.35;1.70;;;22.60;54.10;;;;;;6260369;22;20183;-90
2022/07/12 12:33:44;;;;;;;1.67;1.58;;;22.60;54.10;;;;;;6280226;22;20488;-89
2022/07/12 12:36:14;;;;;;;1.55;1.45;;;22.60;54.10;;;;;;6220820;23;20165;-90
2022/07/12 12:38:39;;;;;;;1.60;1.50;;;22.60;54.00;;;;;;6200380;23;20213;-89
2022/07/12 12:41:05;;;;;;;1.50;1.40;;;22.60;53.90;;;;;;6226326;23;20153;-89
2022/07/12 12:43:32;;;;;;;1.73;1.60;;;22.70;53.90;;;;;;6176723;23;20236;-89
2022/07/12 12:46:00;;;;;;;1.50;1.40;;;22.70;53.90;;;;;;6226961;23;20169;-90
2022/07/12 12:48:30;;;;;;;1.60;1.50;;;22.70;53.80;;;;;;6200298;23;20145;-90
2022/07/12 12:51:09;;;;;;;1.83;1.73;;;22.70;53.90;;;;;;6173084;23;20157;-89
2022/07/12 12:53:37;;;;;;;1.50;1.40;;;22.60;53.70;;;;;;6197969;23;20156;-89
2022/07/12 12:56:08;;;;;;;1.80;1.70;;;22.70;54.30;;;;;;6172917;23;20183;-89
2022/07/12 12:58:34;;;;;;;1.70;1.60;;;22.70;53.50;;;;;;6198261;23;20138;-89
2022/07/12 13:01:02;;;;;;;1.85;1.75;;;22.70;53.50;;;;;;6172909;23;20272;-89
2022/07/12 13:03:28;;;;;;;1.42;1.33;;;22.70;53.50;;;;;;6172485;23;20220;-89
2022/07/12 13:05:55;;;;;;;1.77;1.67;;;22.70;53.40;;;;;;6196604;23;20527;-88
2022/07/12 13:08:24;;;;;;;1.63;1.52;;;22.70;53.40;;;;;;6172278;23;20500;-89